Time;durP1;ratioP1;P1;durP2;ratioP2;P2;SDS_P1;SDS_P2;PMS_P1;PMS_P2;Temp;Humidity;BMP_temperature;BMP_pressure;BME280_temperature;BME280_humidity;BME280_pressure;Samples;Min_cycle;Max_cycle;Signal;HPM_P1;HPM_P2
2022/02/17 00:00:53;;;;;;;;;;;;;;;5.06;100.00;99431.47;5098683;28;19927;-75
2022/02/17 00:03:23;;;;;;;;;;;;;;;5.00;100.00;99424.69;5098494;28;20269;-75
2022/02/17 00:05:51;;;;;;;;;;;;;;;5.03;100.00;99429.84;5117099;28;19977;-75
2022/02/17 00:08:21;;;;;;;;;;;;;;;5.02;100.00;99422.84;5098255;28;19923;-77
2022/02/17 00:10:49;;;;;;;;;;;;;;;5.04;100.00;99426.25;5098740;28;19919;-76
2022/02/17 00:13:17;;;;;;;;;;;;;;;4.97;100.00;99424.84;5116985;28;19952;-77
2022/02/17 00:15:46;;;;;;;;;;;;;;;5.12;100.00;99413.50;5098613;28;19965;-76
2022/02/17 00:18:21;;;;;;;;;;;;;;;5.11;100.00;99422.34;5117039;28;19954;-77
2022/02/17 00:20:52;;;;;;;;;;;;;;;5.21;100.00;99417.47;5117025;28;19920;-76
2022/02/17 00:23:21;;;;;;;;;;;;;;;5.17;100.00;99406.19;5115874;28;19930;-76
2022/02/17 00:25:50;;;;;;;;;;;;;;;5.27;100.00;99395.13;5116685;28;19926;-74
2022/02/17 00:28:18;;;;;;;;;;;;;;;5.35;100.00;99391.16;5117021;28;19919;-74
2022/02/17 00:30:47;;;;;;;;;;;;;;;5.27;100.00;99397.78;5116864;28;20404;-74
2022/02/17 00:33:15;;;;;;;;;;;;;;;5.35;100.00;99392.94;5098364;28;19920;-74
2022/02/17 00:35:43;;;;;;;;;;;;;;;5.36;100.00;99397.31;5116212;28;19954;-75
2022/02/17 00:38:13;;;;;;;;;;;;;;;5.28;100.00;99402.97;5116469;28;19930;-74
2022/02/17 00:40:41;;;;;;;;;;;;;;;5.20;100.00;99412.25;5097798;28;19930;-74
2022/02/17 00:43:10;;;;;;;;;;;;;;;5.15;100.00;99405.41;5098198;28;19919;-74
2022/02/17 00:45:39;;;;;;;;;;;;;;;5.29;100.00;99393.25;5115803;28;20015;-75
2022/02/17 00:48:07;;;;;;;;;;;;;;;5.22;100.00;99405.09;5116420;28;19965;-75
2022/02/17 00:50:36;;;;;;;;;;;;;;;5.21;100.00;99412.19;5115947;28;19920;-75
2022/02/17 00:53:04;;;;;;;;;;;;;;;5.14;100.00;99395.78;5116303;28;20401;-74
2022/02/17 00:55:34;;;;;;;;;;;;;;;5.04;100.00;99378.69;5115857;28;20291;-74
2022/02/17 00:58:02;;;;;;;;;;;;;;;5.02;100.00;99380.56;5097723;28;19920;-74
2022/02/17 01:00:30;;;;;;;;;;;;;;;5.05;100.00;99369.81;5115849;28;19920;-75
2022/02/17 01:02:59;;;;;;;;;;;;;;;4.95;100.00;99363.28;5116084;28;20364;-74
2022/02/17 01:05:28;;;;;;;;;;;;;;;4.99;100.00;99346.31;5115750;28;20311;-75
2022/02/17 01:07:56;;;;;;;;;;;;;;;5.04;100.00;99336.38;5097678;28;19920;-75
2022/02/17 01:10:25;;;;;;;;;;;;;;;5.04;100.00;99341.69;5097276;28;19924;-76
2022/02/17 01:13:00;;;;;;;;;;;;;;;5.03;100.00;99345.25;5097779;28;19966;-74
2022/02/17 01:15:30;;;;;;;;;;;;;;;5.08;100.00;99353.78;5115530;28;19920;-74
2022/02/17 01:17:58;;;;;;;;;;;;;;;5.06;100.00;99345.09;5115407;28;19944;-74
2022/02/17 01:20:27;;;;;;;;;;;;;;;5.09;100.00;99333.50;5115438;28;19972;-75
2022/02/17 01:22:55;;;;;;;;;;;;;;;5.07;100.00;99328.28;5115645;28;19919;-74
2022/02/17 01:25:23;;;;;;;;;;;;;;;5.20;100.00;99309.13;5115237;28;19930;-74
2022/02/17 01:27:53;;;;;;;;;;;;;;;5.35;100.00;99298.59;5115156;28;20422;-74
2022/02/17 01:30:23;;;;;;;;;;;;;;;5.30;100.00;99299.78;5115325;28;19920;-76
2022/02/17 01:32:51;;;;;;;;;;;;;;;5.34;100.00;99306.63;5115461;28;19920;-75
2022/02/17 01:35:19;;;;;;;;;;;;;;;5.20;100.00;99315.28;5115004;28;19920;-76
2022/02/17 01:37:47;;;;;;;;;;;;;;;5.22;100.00;99312.56;5096601;28;19926;-76
2022/02/17 01:40:15;;;;;;;;;;;;;;;5.10;100.00;99336.06;5115298;28;20018;-74
2022/02/17 01:42:44;;;;;;;;;;;;;;;5.16;100.00;99346.31;5096602;28;19954;-74
2022/02/17 01:45:12;;;;;;;;;;;;;;;5.06;100.00;99300.16;5115155;28;20376;-74
2022/02/17 01:47:45;;;;;;;;;;;;;;;5.04;100.00;99266.81;5096620;28;20292;-74
2022/02/17 01:50:14;;;;;;;;;;;;;;;5.06;100.00;99254.38;5114923;28;19919;-75
2022/02/17 01:52:42;;;;;;;;;;;;;;;5.02;100.00;99268.66;5095987;28;19920;-75
2022/02/17 01:55:10;;;;;;;;;;;;;;;4.94;100.00;99257.66;5114963;28;19919;-75
2022/02/17 01:57:40;;;;;;;;;;;;;;;5.11;100.00;99253.16;5096571;28;19919;-75
2022/02/17 02:00:11;;;;;;;;;;;;;;;5.16;100.00;99250.28;5096958;28;20296;-75
2022/02/17 02:02:42;;;;;;;;;;;;;;;5.11;100.00;99232.03;5114341;28;19919;-75
2022/02/17 02:05:11;;;;;;;;;;;;;;;5.10;100.00;99230.31;5096548;28;19973;-77
2022/02/17 02:07:42;;;;;;;;;;;;;;;5.06;100.00;99239.34;5096258;28;20351;-77
2022/02/17 02:10:11;;;;;;;;;;;;;;;5.08;100.00;99242.75;5114541;28;19919;-78
2022/02/17 02:12:39;;;;;;;;;;;;;;;4.98;100.00;99246.84;5114385;28;19923;-77
2022/02/17 02:15:08;;;;;;;;;;;;;;;5.11;100.00;99216.16;5096299;28;20011;-77
2022/02/17 02:17:38;;;;;;;;;;;;;;;5.09;100.00;99211.91;5114033;28;20400;-78
2022/02/17 02:20:07;;;;;;;;;;;;;;;5.19;100.00;99202.53;5114551;28;19963;-77
2022/02/17 02:22:37;;;;;;;;;;;;;;;5.03;100.00;99199.88;5095976;28;20288;-76
2022/02/17 02:25:06;;;;;;;;;;;;;;;5.08;100.00;99184.63;5114163;28;19919;-76
2022/02/17 02:27:36;;;;;;;;;;;;;;;5.09;100.00;99188.97;5113807;28;19924;-76
2022/02/17 02:30:05;;;;;;;;;;;;;;;5.06;100.00;99185.66;5114283;28;20014;-75
2022/02/17 02:32:34;;;;;;;;;;;;;;;5.04;100.00;99183.09;5113729;28;19923;-75
2022/02/17 02:35:03;;;;;;;;;;;;;;;5.14;100.00;99176.38;5114481;28;19925;-75
2022/02/17 02:37:31;;;;;;;;;;;;;;;5.12;100.00;99170.31;5113708;28;20356;-76
2022/02/17 02:40:00;;;;;;;;;;;;;;;5.10;100.00;99188.03;5113872;28;20404;-75
2022/02/17 02:42:28;;;;;;;;;;;;;;;5.11;100.00;99178.31;5114199;28;20006;-75
2022/02/17 02:44:56;;;;;;;;;;;;;;;5.07;100.00;99182.06;5113560;28;19919;-75
2022/02/17 02:47:25;;;;;;;;;;;;;;;5.23;100.00;99171.50;5095904;28;19927;-73
2022/02/17 02:49:53;;;;;;;;;;;;;;;5.18;100.00;99167.31;5113844;28;19920;-75
2022/02/17 02:52:21;;;;;;;;;;;;;;;5.22;100.00;99167.16;5113921;28;19993;-75
2022/02/17 02:54:49;;;;;;;;;;;;;;;5.22;100.00;99161.88;5113546;28;19927;-75
2022/02/17 02:57:18;;;;;;;;;;;;;;;5.23;100.00;99164.44;5095661;28;20386;-75
2022/02/17 02:59:46;;;;;;;;;;;;;;;5.27;100.00;99154.53;5113323;28;20443;-74
2022/02/17 03:02:14;;;;;;;;;;;;;;;5.35;100.00;99142.59;5114036;28;20291;-75
2022/02/17 03:04:42;;;;;;;;;;;;;;;5.30;100.00;99138.47;5113392;28;19923;-75
2022/02/17 03:07:10;;;;;;;;;;;;;;;5.27;100.00;99136.88;5113657;28;19965;-75
2022/02/17 03:09:40;;;;;;;;;;;;;;;5.29;100.00;99126.19;5113737;28;19923;-75
2022/02/17 03:12:09;;;;;;;;;;;;;;;5.29;100.00;99131.50;5113956;28;19941;-75
2022/02/17 03:14:40;;;;;;;;;;;;;;;5.30;100.00;99130.53;5113574;28;19923;-74
2022/02/17 03:17:08;;;;;;;;;;;;;;;5.22;100.00;99127.50;5113345;28;19989;-74
2022/02/17 03:19:36;;;;;;;;;;;;;;;5.25;100.00;99114.09;5113528;28;19927;-75
2022/02/17 03:22:04;;;;;;;;;;;;;;;5.20;100.00;99124.06;5113563;28;20014;-74
2022/02/17 03:24:32;;;;;;;;;;;;;;;5.20;100.00;99118.78;5113767;28;19920;-77
2022/02/17 03:27:00;;;;;;;;;;;;;;;5.33;100.00;99102.16;5113719;28;19919;-75
2022/02/17 03:29:29;;;;;;;;;;;;;;;5.25;100.00;99106.16;5113839;28;20311;-75
2022/02/17 03:31:59;;;;;;;;;;;;;;;5.28;100.00;99096.25;5113453;28;19920;-75
2022/02/17 03:34:30;;;;;;;;;;;;;;;5.37;100.00;99090.44;5113682;28;19926;-75
2022/02/17 03:36:59;;;;;;;;;;;;;;;5.45;100.00;99082.09;5113597;28;20018;-75
2022/02/17 03:39:27;;;;;;;;;;;;;;;5.53;100.00;99071.91;5113830;28;19920;-75
2022/02/17 03:41:55;;;;;;;;;;;;;;;5.66;100.00;99080.84;5113246;28;19928;-78
2022/02/17 03:44:23;;;;;;;;;;;;;;;5.75;100.00;99064.41;5113236;28;20357;-77
2022/02/17 03:46:51;;;;;;;;;;;;;;;5.66;100.00;99090.56;5113243;28;19966;-77
2022/02/17 03:49:21;;;;;;;;;;;;;;;5.63;100.00;99081.03;5113573;28;19920;-77
2022/02/17 03:51:49;;;;;;;;;;;;;;;5.68;100.00;99084.22;5112704;28;19923;-76
2022/02/17 03:54:17;;;;;;;;;;;;;;;5.70;100.00;99077.09;5113497;28;20018;-76
2022/02/17 03:56:45;;;;;;;;;;;;;;;5.68;100.00;99078.94;5113062;28;20023;-77
2022/02/17 03:59:13;;;;;;;;;;;;;;;5.77;100.00;99096.06;5116889;28;19926;-77
2022/02/17 04:01:42;;;;;;;;;;;;;;;5.73;100.00;99092.75;5117046;28;20444;-78
2022/02/17 04:04:10;;;;;;;;;;;;;;;5.85;100.00;99116.78;5116834;28;19947;-77
2022/02/17 04:06:40;;;;;;;;;;;;;;;5.80;100.00;99117.09;5116846;28;20361;-78
2022/02/17 04:09:08;;;;;;;;;;;;;;;5.75;100.00;99106.75;5117135;28;19920;-77
2022/02/17 04:11:37;;;;;;;;;;;;;;;5.80;100.00;99109.16;5098135;28;19919;-81
2022/02/17 04:14:05;;;;;;;;;;;;;;;5.89;100.00;99118.34;5099023;28;19973;-76
2022/02/17 04:16:33;;;;;;;;;;;;;;;5.94;100.00;99132.16;5116649;28;20291;-76
2022/02/17 04:19:02;;;;;;;;;;;;;;;5.94;100.00;99142.75;5116528;28;19926;-76
2022/02/17 04:21:30;;;;;;;;;;;;;;;5.93;100.00;99141.06;5116876;28;19919;-76
2022/02/17 04:24:00;;;;;;;;;;;;;;;5.93;100.00;99131.31;5116483;28;19920;-73
2022/02/17 04:26:28;;;;;;;;;;;;;;;6.05;100.00;99108.56;5116689;28;20359;-72
2022/02/17 04:28:57;;;;;;;;;;;;;;;5.97;100.00;99101.06;5116403;28;20426;-74
2022/02/17 04:31:27;;;;;;;;;;;;;;;6.02;100.00;99076.97;5116251;28;19966;-74
2022/02/17 04:33:55;;;;;;;;;;;;;;;6.07;100.00;99064.31;5115974;28;19963;-74
2022/02/17 04:36:23;;;;;;;;;;;;;;;6.05;100.00;99060.91;5116552;28;19920;-74
2022/02/17 04:38:51;;;;;;;;;;;;;;;6.07;100.00;99064.31;5097958;28;19926;-74
2022/02/17 04:44:07;;;;;;;;;;;;;;;5.87;100.00;99064.63;5098301;28;20390;-74
2022/02/17 04:46:35;;;;;;;;;;;;;;;5.91;100.00;99071.50;5098210;28;19939;-73
2022/02/17 04:49:03;;;;;;;;;;;;;;;5.86;100.00;99061.13;5115784;28;20443;-74
2022/02/17 04:51:31;;;;;;;;;;;;;;;5.86;100.00;99045.25;5116098;28;19985;-74
2022/02/17 04:53:59;;;;;;;;;;;;;;;5.80;100.00;99039.50;5115917;28;19929;-74
2022/02/17 04:56:33;;;;;;;;;;;;;;;5.80;100.00;99043.00;5116157;28;19926;-74
2022/02/17 04:59:21;;;;;;;;;;;;;;;5.67;100.00;99032.25;5115966;28;20396;-75
2022/02/17 05:01:49;;;;;;;;;;;;;;;5.74;100.00;99041.53;5115467;28;19928;-75
2022/02/17 05:04:22;;;;;;;;;;;;;;;5.65;100.00;99031.50;5098177;28;19926;-75
2022/02/17 05:06:50;;;;;;;;;;;;;;;5.66;100.00;99033.22;5115899;28;19959;-75
2022/02/17 05:09:18;;;;;;;;;;;;;;;5.59;100.00;99029.22;5115553;28;19926;-75
2022/02/17 05:11:47;;;;;;;;;;;;;;;5.54;100.00;99026.00;5115238;28;19927;-75
2022/02/17 05:14:15;;;;;;;;;;;;;;;5.56;100.00;99026.75;5115944;28;20299;-75
2022/02/17 05:16:44;;;;;;;;;;;;;;;5.56;100.00;99021.47;5115400;28;19920;-77
2022/02/17 05:19:12;;;;;;;;;;;;;;;5.52;100.00;99004.09;5115418;28;19919;-75
2022/02/17 05:21:40;;;;;;;;;;;;;;;5.52;100.00;98998.81;5115261;28;19969;-74
2022/02/17 05:24:08;;;;;;;;;;;;;;;5.54;100.00;98993.41;5115353;28;19955;-74
2022/02/17 05:26:36;;;;;;;;;;;;;;;5.52;100.00;98980.28;5097023;28;19919;-75
2022/02/17 05:29:06;;;;;;;;;;;;;;;5.59;100.00;98963.09;5097031;28;19959;-75
2022/02/17 05:31:34;;;;;;;;;;;;;;;5.58;100.00;98944.66;5115499;28;19919;-81
2022/02/17 05:34:02;;;;;;;;;;;;;;;5.63;100.00;98939.97;5114783;28;20269;-80
2022/02/17 05:36:30;;;;;;;;;;;;;;;5.60;100.00;98938.38;5097251;28;20268;-80
2022/02/17 05:38:58;;;;;;;;;;;;;;;5.59;100.00;98925.19;5114946;28;19919;-80
2022/02/17 05:41:27;;;;;;;;;;;;;;;5.64;100.00;98929.28;5096702;28;19926;-80
2022/02/17 05:43:56;;;;;;;;;;;;;;;5.67;100.00;98923.78;5114808;28;20010;-80
2022/02/17 05:46:25;;;;;;;;;;;;;;;5.64;100.00;98925.78;5097103;28;19965;-80
2022/02/17 05:48:53;;;;;;;;;;;;;;;5.65;100.00;98914.25;5114445;28;20030;-79
2022/02/17 05:51:22;;;;;;;;;;;;;;;5.70;100.00;98918.34;5114840;28;19942;-77
2022/02/17 05:53:50;;;;;;;;;;;;;;;5.71;100.00;98905.97;5114382;28;19927;-78
2022/02/17 05:56:18;;;;;;;;;;;;;;;5.66;100.00;98903.56;5096684;28;19920;-78
2022/02/17 05:58:46;;;;;;;;;;;;;;;5.71;100.00;98904.16;5114534;28;19930;-79
2022/02/17 06:01:14;;;;;;;;;;;;;;;5.68;100.00;98883.16;5114734;28;20401;-78
2022/02/17 06:03:43;;;;;;;;;;;;;;;5.70;100.00;98897.16;5114772;28;19926;-75
2022/02/17 06:06:11;;;;;;;;;;;;;;;5.69;100.00;98905.19;5096461;28;20006;-76
2022/02/17 06:08:39;;;;;;;;;;;;;;;5.67;100.00;98905.28;5114853;28;19920;-74
2022/02/17 06:11:07;;;;;;;;;;;;;;;5.63;100.00;98919.66;5114230;28;19927;-75
2022/02/17 06:13:36;;;;;;;;;;;;;;;5.56;100.00;98913.03;5114527;28;20279;-75
2022/02/17 06:16:04;;;;;;;;;;;;;;;5.70;100.00;98915.69;5096121;28;19980;-74
2022/02/17 06:18:32;;;;;;;;;;;;;;;5.69;100.00;98907.81;5114448;28;19920;-73
2022/02/17 06:21:02;;;;;;;;;;;;;;;5.77;100.00;98886.19;5113232;28;19951;-72
2022/02/17 06:23:30;;;;;;;;;;;;;;;5.74;100.00;98905.75;5096200;28;19924;-77
2022/02/17 06:25:58;;;;;;;;;;;;;;;5.66;100.00;98914.16;5095866;28;19920;-74
2022/02/17 06:28:27;;;;;;;;;;;;;;;5.69;100.00;98921.94;5114078;28;19920;-75
2022/02/17 06:30:57;;;;;;;;;;;;;;;5.64;100.00;98897.53;5096756;28;19930;-73
2022/02/17 06:33:25;;;;;;;;;;;;;;;5.82;100.00;98898.19;5098437;28;19920;-74
2022/02/17 06:35:53;;;;;;;;;;;;;;;5.79;100.00;98908.09;5113870;28;19920;-74
2022/02/17 06:38:23;;;;;;;;;;;;;;;5.73;100.00;98922.59;5114246;28;19973;-74
2022/02/17 06:40:51;;;;;;;;;;;;;;;5.77;100.00;98900.28;5096179;28;20006;-75
2022/02/17 06:43:20;;;;;;;;;;;;;;;5.87;100.00;98917.28;5114277;28;19919;-74
2022/02/17 06:45:48;;;;;;;;;;;;;;;5.77;100.00;98918.78;5114214;28;19920;-74
2022/02/17 06:48:18;;;;;;;;;;;;;;;5.78;100.00;98909.06;5113939;28;19954;-74
2022/02/17 06:50:48;;;;;;;;;;;;;;;5.93;100.00;98903.69;5114069;28;19920;-75
2022/02/17 06:53:16;;;;;;;;;;;;;;;6.00;100.00;98934.16;5095443;28;19920;-75
2022/02/17 06:55:46;;;;;;;;;;;;;;;6.06;100.00;98930.25;5096173;28;19967;-76
2022/02/17 06:58:16;;;;;;;;;;;;;;;6.04;100.00;98905.69;5095625;28;20375;-75
2022/02/17 07:00:45;;;;;;;;;;;;;;;6.11;100.00;98884.97;5113598;28;19924;-76
2022/02/17 07:03:13;;;;;;;;;;;;;;;6.01;100.00;98884.69;5113752;28;20006;-74
2022/02/17 07:05:41;;;;;;;;;;;;;;;6.08;100.00;98883.38;5113933;28;19953;-76
2022/02/17 07:08:10;;;;;;;;;;;;;;;6.17;100.00;98872.16;5113522;28;19920;-76
2022/02/17 07:10:56;;;;;;;;;;;;;;;6.23;100.00;98855.06;5113988;28;19926;-74
2022/02/17 07:13:26;;;;;;;;;;;;;;;6.25;100.00;98869.88;5095727;28;19969;-75
2022/02/17 07:15:55;;;;;;;;;;;;;;;6.26;100.00;98842.44;5113822;28;19938;-75
2022/02/17 07:18:24;;;;;;;;;;;;;;;6.27;100.00;98833.59;5095023;28;19950;-76
2022/02/17 07:20:54;;;;;;;;;;;;;;;6.26;100.00;98853.03;5113374;28;19926;-76
2022/02/17 07:23:24;;;;;;;;;;;;;;;6.27;100.00;98838.00;5113639;28;20437;-76
2022/02/17 07:25:52;;;;;;;;;;;;;;;6.28;100.00;98855.63;5095374;28;20269;-78
2022/02/17 07:28:22;;;;;;;;;;;;;;;6.19;100.00;98856.22;5112963;28;19927;-75
2022/02/17 07:30:54;;;;;;;;;;;;;;;6.26;100.00;98857.50;5113693;28;20056;-75
2022/02/17 07:33:23;;;;;;;;;;;;;;;6.24;100.00;98870.00;5117484;28;19919;-75
2022/02/17 07:35:51;;;;;;;;;;;;;;;6.29;100.00;98842.28;5099316;28;19919;-75
2022/02/17 07:38:39;;;;;;;;;;;;;;;6.32;100.00;98863.25;5117416;28;20372;-76
2022/02/17 07:41:08;;;;;;;;;;;;;;;6.42;100.00;98833.53;5117041;28;20014;-76
2022/02/17 07:43:36;;;;;;;;;;;;;;;6.40;100.00;98827.47;5117246;28;20429;-76
2022/02/17 07:46:05;;;;;;;;;;;;;;;6.50;100.00;98823.28;5117082;28;19920;-75
2022/02/17 07:48:34;;;;;;;;;;;;;;;6.49;100.00;98822.44;5099164;28;20422;-75
2022/02/17 07:51:02;;;;;;;;;;;;;;;6.54;100.00;98803.56;5117218;28;19920;-75
2022/02/17 07:53:31;;;;;;;;;;;;;;;6.56;100.00;98764.56;5117391;28;19920;-75
2022/02/17 07:55:59;;;;;;;;;;;;;;;6.63;100.00;98767.66;5116677;28;19926;-75
2022/02/17 07:58:27;;;;;;;;;;;;;;;6.66;100.00;98780.69;5117153;28;19920;-75
2022/02/17 08:00:55;;;;;;;;;;;;;;;6.68;100.00;98784.97;5116925;28;20392;-75
2022/02/17 08:03:25;;;;;;;;;;;;;;;6.72;100.00;98775.84;5099337;28;20034;-75
2022/02/17 08:05:53;;;;;;;;;;;;;;;6.60;100.00;98788.13;5116954;28;19955;-75
2022/02/17 08:08:48;;;;;;;;;;;;;;;6.73;100.00;98787.28;5099156;28;19927;-75
2022/02/17 08:11:19;;;;;;;;;;;;;;;6.71;100.00;98775.94;5098635;28;19924;-75
2022/02/17 08:14:07;;;;;;;;;;;;;;;6.70;100.00;98792.78;5116682;28;19973;-76
2022/02/17 08:16:35;;;;;;;;;;;;;;;6.82;100.00;98779.56;5116799;28;19919;-75
2022/02/17 08:19:05;;;;;;;;;;;;;;;6.98;100.00;98802.38;5116689;28;19919;-76
2022/02/17 08:21:43;;;;;;;;;;;;;;;7.02;100.00;98806.50;5116810;28;19969;-75
2022/02/17 08:24:17;;;;;;;;;;;;;;;7.14;100.00;98797.69;5116711;28;19927;-75
2022/02/17 08:26:46;;;;;;;;;;;;;;;7.24;100.00;98793.50;5116405;28;19926;-75
2022/02/17 08:29:14;;;;;;;;;;;;;;;7.35;100.00;98777.66;5116562;28;19920;-75
2022/02/17 08:31:43;;;;;;;;;;;;;;;7.33;100.00;98792.81;5116842;28;19927;-75
2022/02/17 08:34:13;;;;;;;;;;;;;;;7.50;100.00;98788.97;5116093;28;19920;-76
2022/02/17 08:36:41;;;;;;;;;;;;;;;7.62;100.00;98779.28;5116711;28;19920;-75
2022/02/17 08:39:09;;;;;;;;;;;;;;;7.66;100.00;98759.56;5116058;28;20022;-76
2022/02/17 08:41:37;;;;;;;;;;;;;;;7.73;100.00;98760.81;5116686;28;20353;-75
2022/02/17 08:44:06;;;;;;;;;;;;;;;7.79;100.00;98747.09;5115540;28;19919;-76
2022/02/17 08:46:35;;;;;;;;;;;;;;;7.76;100.00;98757.94;5098489;28;19920;-75
2022/02/17 08:49:05;;;;;;;;;;;;;;;7.72;100.00;98746.72;5116433;28;20369;-76
2022/02/17 08:51:35;;;;;;;;;;;;;;;7.66;100.00;98764.88;5115950;28;19919;-76
2022/02/17 08:54:07;;;;;;;;;;;;;;;7.76;100.00;98731.41;5097842;28;20368;-76
2022/02/17 08:56:37;;;;;;;;;;;;;;;7.82;100.00;98741.59;5116740;28;19926;-75
2022/02/17 08:59:05;;;;;;;;;;;;;;;7.88;100.00;98719.88;5097474;28;19976;-75
2022/02/17 09:01:34;;;;;;;;;;;;;;;8.11;100.00;98733.28;5116228;28;19994;-75
2022/02/17 09:04:02;;;;;;;;;;;;;;;8.07;100.00;98719.38;5115890;28;19933;-77
2022/02/17 09:06:31;;;;;;;;;;;;;;;8.03;100.00;98709.94;5115982;28;19919;-75
2022/02/17 09:09:03;;;;;;;;;;;;;;;8.02;100.00;98717.06;5115964;28;20006;-75
2022/02/17 09:11:34;;;;;;;;;;;;;;;8.07;100.00;98718.53;5115772;28;20368;-75
2022/02/17 09:14:02;;;;;;;;;;;;;;;7.98;100.00;98730.66;5115842;28;19919;-75
2022/02/17 09:16:33;;;;;;;;;;;;;;;7.99;100.00;98714.63;5115587;28;19926;-75
2022/02/17 09:19:01;;;;;;;;;;;;;;;7.93;100.00;98720.41;5097870;28;19967;-76
2022/02/17 09:21:29;;;;;;;;;;;;;;;7.97;100.00;98724.50;5097479;28;19959;-75
2022/02/17 09:23:57;;;;;;;;;;;;;;;7.99;100.00;98727.03;5115727;28;19920;-75
2022/02/17 09:26:29;;;;;;;;;;;;;;;8.16;100.00;98729.31;5115246;28;19927;-75
2022/02/17 09:28:58;;;;;;;;;;;;;;;8.34;100.00;98721.78;5115620;28;19920;-75
2022/02/17 09:31:46;;;;;;;;;;;;;;;8.30;100.00;98704.38;5115584;28;19919;-76
2022/02/17 09:34:14;;;;;;;;;;;;;;;8.28;100.00;98695.66;5114972;28;19927;-75
2022/02/17 09:36:42;;;;;;;;;;;;;;;8.34;100.00;98681.94;5115236;28;19943;-75
2022/02/17 09:39:10;;;;;;;;;;;;;;;8.38;100.00;98680.75;5115065;28;19920;-76
2022/02/17 09:41:39;;;;;;;;;;;;;;;8.45;100.00;98679.31;5115566;28;20373;-75
2022/02/17 09:44:09;;;;;;;;;;;;;;;8.59;100.00;98681.78;5096961;28;19973;-75
2022/02/17 09:46:41;;;;;;;;;;;;;;;8.74;100.00;98682.41;5115111;28;19919;-75
2022/02/17 09:49:10;;;;;;;;;;;;;;;8.81;100.00;98674.81;5114837;28;19930;-75
2022/02/17 09:51:39;;;;;;;;;;;;;;;8.93;100.00;98665.88;5096979;28;20006;-75
2022/02/17 09:54:07;;;;;;;;;;;;;;;8.99;100.00;98651.25;5114937;28;20284;-76
2022/02/17 09:56:37;;;;;;;;;;;;;;;8.94;100.00;98635.66;5095765;28;20373;-75
2022/02/17 09:59:06;;;;;;;;;;;;;;;8.91;100.00;98637.72;5114889;28;20261;-74
2022/02/17 10:01:34;;;;;;;;;;;;;;;8.95;100.00;98642.66;5114856;28;19988;-75
2022/02/17 10:04:12;;;;;;;;;;;;;;;9.00;100.00;98627.19;5114975;28;19920;-75
2022/02/17 10:06:43;;;;;;;;;;;;;;;9.03;100.00;98624.28;5115017;28;20014;-74
2022/02/17 10:09:12;;;;;;;;;;;;;;;9.15;100.00;98633.09;5114642;28;19920;-75
2022/02/17 10:11:44;;;;;;;;;;;;;;;9.20;100.00;98627.41;5115035;28;19923;-76
2022/02/17 10:14:15;;;;;;;;;;;;;;;9.24;100.00;98604.91;5096525;28;19919;-75
2022/02/17 10:16:51;;;;;;;;;;;;;;;9.30;100.00;98601.75;5114952;28;19919;-75
2022/02/17 10:19:19;;;;;;;;;;;;;;;9.26;100.00;98597.63;5096510;28;20017;-75
2022/02/17 10:21:47;;;;;;;;;;;;;;;9.35;100.00;98591.56;5114577;28;20369;-75
2022/02/17 10:24:36;;;;;;;;;;;;;;;9.37;100.00;98587.00;5114505;28;19924;-75
2022/02/17 10:27:05;;;;;;;;;;;;;;;9.39;100.00;98574.41;5114485;28;19920;-75
2022/02/17 10:29:35;;;;;;;;;;;;;;;9.51;100.00;98569.88;5114277;28;20390;-75
2022/02/17 10:32:05;;;;;;;;;;;;;;;9.58;100.00;98558.63;5114473;28;19993;-75
2022/02/17 10:34:34;;;;;;;;;;;;;;;9.67;100.00;98562.34;5096073;28;19920;-75
2022/02/17 10:37:03;;;;;;;;;;;;;;;9.66;100.00;98539.34;5114226;28;19973;-75
2022/02/17 10:39:34;;;;;;;;;;;;;;;9.75;100.00;98525.25;5114038;28;19919;-75
2022/02/17 10:42:04;;;;;;;;;;;;;;;9.81;100.00;98532.72;5096089;28;20356;-74
2022/02/17 10:44:33;;;;;;;;;;;;;;;9.87;100.00;98523.38;5113927;28;20034;-75
2022/02/17 10:47:13;;;;;;;;;;;;;;;9.93;100.00;98525.50;5114222;28;19919;-75
2022/02/17 10:49:42;;;;;;;;;;;;;;;9.90;100.00;98526.63;5114141;28;19920;-75
2022/02/17 10:52:10;;;;;;;;;;;;;;;9.96;100.00;98493.31;5114117;28;20268;-75
2022/02/17 10:54:38;;;;;;;;;;;;;;;9.96;100.00;98480.00;5114298;28;19936;-75
2022/02/17 10:57:07;;;;;;;;;;;;;;;10.08;100.00;98513.56;5095786;28;20022;-75
2022/02/17 11:02:23;;;;;;;;;;;;;;;10.23;100.00;98509.63;5113989;28;19973;-75
2022/02/17 11:04:51;;;;;;;;;;;;;;;10.30;100.00;98483.25;5113947;28;20307;-75
2022/02/17 11:07:20;;;;;;;;;;;;;;;10.41;100.00;98493.00;5113334;28;19923;-75
2022/02/17 11:09:49;;;;;;;;;;;;;;;10.55;100.00;98481.97;5095451;28;20019;-75
2022/02/17 11:12:17;;;;;;;;;;;;;;;10.70;100.00;98485.94;5095496;28;20413;-75
2022/02/17 11:14:47;;;;;;;;;;;;;;;11.06;100.00;98473.81;5095679;28;19919;-75
2022/02/17 11:17:15;;;;;;;;;;;;;;;11.08;100.00;98489.69;5095842;28;19956;-76
2022/02/17 11:19:54;;;;;;;;;;;;;;;11.09;100.00;98496.69;5095897;28;20338;-75
2022/02/17 11:22:23;;;;;;;;;;;;;;;11.03;100.00;98499.94;5113700;28;19923;-75
2022/02/17 11:24:52;;;;;;;;;;;;;;;10.96;100.00;98514.78;5113815;28;19920;-75
2022/02/17 11:27:21;;;;;;;;;;;;;;;10.82;100.00;98524.88;5094837;28;19924;-76
2022/02/17 11:29:50;;;;;;;;;;;;;;;10.85;100.00;98505.09;5113428;28;19919;-75
2022/02/17 11:32:23;;;;;;;;;;;;;;;10.83;100.00;98501.72;5095831;28;19924;-76
2022/02/17 11:34:58;;;;;;;;;;;;;;;10.76;100.00;98522.75;5113571;28;19962;-75
2022/02/17 11:37:33;;;;;;;;;;;;;;;10.65;100.00;98546.84;5113549;28;19969;-75
2022/02/17 11:40:03;;;;;;;;;;;;;;;10.57;100.00;98552.00;5113553;28;19919;-75
2022/02/17 11:42:33;;;;;;;;;;;;;;;10.65;100.00;98564.66;5113412;28;19919;-75
2022/02/17 11:45:09;;;;;;;;;;;;;;;10.72;100.00;98590.66;5095462;28;19919;-74
2022/02/17 11:47:56;;;;;;;;;;;;;;;10.86;100.00;98592.13;5113173;28;20415;-75
2022/02/17 11:50:32;;;;;;;;;;;;;;;10.92;100.00;98601.41;5113350;28;20288;-76
2022/02/17 11:53:19;;;;;;;;;;;;;;;11.02;100.00;98591.63;5095262;28;19958;-75
2022/02/17 11:55:47;;;;;;;;;;;;;;;11.13;100.00;98597.69;5113171;28;19999;-75
2022/02/17 11:58:34;;;;;;;;;;;;;;;11.20;100.00;98599.84;5113587;28;20361;-75
2022/02/17 12:01:18;;;;;;;;;;;;;;;11.23;100.00;98600.41;5113405;28;19926;-75
2022/02/17 12:03:57;;;;;;;;;;;;;;;11.28;100.00;98599.97;5112835;28;19973;-76
2022/02/17 12:06:48;;;;;;;;;;;;;;;11.43;100.00;98591.44;5095360;28;19949;-74
2022/02/17 12:09:37;;;;;;;;;;;;;;;11.55;100.00;98605.50;5113227;28;19926;-74
2022/02/17 12:12:46;;;;;;;;;;;;;;;11.59;100.00;98590.06;5113458;28;19920;-74
2022/02/17 12:15:16;;;;;;;;;;;;;;;11.67;100.00;98598.22;5113209;28;19920;-75
2022/02/17 12:17:45;;;;;;;;;;;;;;;11.68;100.00;98589.25;5113390;28;19981;-75
2022/02/17 12:20:15;;;;;;;;;;;;;;;11.75;100.00;98579.66;5116404;28;19920;-74
2022/02/17 12:22:49;;;;;;;;;;;;;;;11.88;100.00;98572.25;5116732;28;20022;-75
2022/02/17 12:25:20;;;;;;;;;;;;;;;11.83;100.00;98558.47;5116632;28;19919;-75
2022/02/17 12:27:49;;;;;;;;;;;;;;;11.81;100.00;98573.81;5116513;28;19927;-75
2022/02/17 12:30:24;;;;;;;;;;;;;;;11.74;100.00;98583.31;5098940;28;20303;-75
2022/02/17 12:33:03;;;;;;;;;;;;;;;11.62;100.00;98595.13;5098634;28;20010;-75
2022/02/17 12:35:31;;;;;;;;;;;;;;;11.64;100.00;98586.00;5116558;28;19962;-75
2022/02/17 12:38:08;;;;;;;;;;;;;;;11.61;100.00;98586.28;5116675;28;19923;-75
2022/02/17 12:40:36;;;;;;;;;;;;;;;11.64;100.00;98590.47;5116181;28;19970;-74
2022/02/17 12:43:04;;;;;;;;;;;;;;;11.44;100.00;98587.78;5116622;28;20311;-76
2022/02/17 12:45:40;;;;;;;;;;;;;;;11.33;100.00;98601.25;5116459;28;19920;-75
2022/02/17 12:48:08;;;;;;;;;;;;;;;11.25;100.00;98617.09;5098475;28;19924;-76
2022/02/17 12:50:56;;;;;;;;;;;;;;;11.34;100.00;98651.00;5098356;28;19927;-75
2022/02/17 12:53:27;;;;;;;;;;;;;;;11.30;100.00;98665.59;5097531;28;19943;-76
2022/02/17 12:55:55;;;;;;;;;;;;;;;11.44;100.00;98657.22;5116525;28;19919;-76
2022/02/17 12:58:32;;;;;;;;;;;;;;;11.67;100.00;98635.59;5097422;28;20034;-76
2022/02/17 13:01:00;;;;;;;;;;;;;;;11.54;100.00;98653.72;5116716;28;19966;-76
2022/02/17 13:03:32;;;;;;;;;;;;;;;11.55;100.00;98666.09;5116070;28;19920;-76
2022/02/17 13:08:52;;;;;;;;;;;;;;;11.34;100.00;98699.03;5092491;28;20338;-75